Canadian Transport — VCLX — position and weather

sailwx.info

Track history (hours):
 
Tides and Currents Weather Stations Pressure Air Temp Water Temp Dewpoint Dewpoint Depression Visibility Wind Speed Wind Dir Waves Ship Positions

Canadian Transport

Last reported at 2018-Feb-24 12:04 UTC. Time now 2018-Feb-25 05:57 UTC.
Position N 45°32' W 073°32'.

Length 223 m; draft 8.9 m.

Type: Cargo ship. MMSI: 316001698.

Date/timePositionNaut miles runAvg speedWind from/ knotsBaromVisibWave heightAir tempDewpointWater temp
2018-Feb-24 12:04N 45°32' W 073°32'0 0.0
2018-Feb-24 11:55N 45°32' W 073°32'0 0.0
2018-Feb-24 11:20N 45°32' W 073°32'0 0.0
2018-Feb-24 10:58N 45°32' W 073°32'0 0.0
2018-Feb-24 10:03N 45°32' W 073°32'0 0.0
2018-Feb-24 09:59N 45°32' W 073°32'0 0.0
2018-Feb-24 09:28N 45°32' W 073°32'0 0.0
2018-Feb-24 08:57N 45°32' W 073°32'0 0.0
2018-Feb-24 08:06N 45°32' W 073°32'12 4.7
2018-Feb-24 05:29N 45°43' W 073°26'4 8.7
2018-Feb-24 05:01N 45°46' W 073°22'4 8.7
2018-Feb-24 04:30N 45°50' W 073°18'1 1.4
2018-Feb-24 04:01N 45°50' W 073°17'0 0.0
2018-Feb-24 03:30N 45°50' W 073°17'0 0.0
2018-Feb-24 03:01N 45°50' W 073°17'0 0.0
2018-Feb-24 02:27N 45°50' W 073°17'0 0.0
2018-Feb-24 02:01N 45°50' W 073°17'0 0.0
2018-Feb-24 01:30N 45°50' W 073°17'0 0.0
2018-Feb-24 01:00N 45°50' W 073°17'0 0.0
2018-Feb-24 00:30N 45°50' W 073°17'0 0.0
2018-Feb-24 00:01N 45°50' W 073°17'0 0.0
2018-Feb-23 23:31N 45°50' W 073°17'0 0.0
2018-Feb-23 23:01N 45°50' W 073°17'0 0.0
2018-Feb-23 22:30N 45°50' W 073°17'0 0.0
2018-Feb-23 22:01N 45°50' W 073°17'0 0.0
2018-Feb-23 21:30N 45°50' W 073°17'0 0.0
2018-Feb-23 21:01N 45°50' W 073°17'0 0.0
2018-Feb-23 20:29N 45°50' W 073°17'0 0.0
2018-Feb-23 20:01N 45°50' W 073°17'0 0.0
2018-Feb-23 19:31N 45°50' W 073°17'0 0.0
2018-Feb-23 18:59N 45°50' W 073°17'0 0.0
2018-Feb-23 18:31N 45°50' W 073°17'0 0.0
2018-Feb-23 18:00N 45°50' W 073°17'0 0.0
2018-Feb-23 17:30N 45°50' W 073°17'0 0.0
2018-Feb-23 17:01N 45°50' W 073°17'0 0.9
2018-Feb-23 16:31N 45°50' W 073°17'1 2.9
2018-Feb-23 16:00N 45°52' W 073°16'4 7.5
2018-Feb-23 15:31N 45°55' W 073°13'99 8.1
2018-Feb-23 03:13N 46°48' W 071°12'2 7.1
2018-Feb-23 03:00N 46°50' W 071°11'  
Track history (hours):
 
Tides and Currents Weather Stations Pressure Air Temp Water Temp Dewpoint Dewpoint Depression Visibility Wind Speed Wind Dir Waves Ship Positions

Canadian Transport

Last reported at 2018-Feb-24 12:04 UTC. Time now 2018-Feb-25 05:57 UTC.
Position N 45°32' W 073°32'.

Length 223 m; draft 8.9 m.

Type: Cargo ship. MMSI: 316001698.

Date/timePositionNaut miles runAvg speedWind from/ knotsBaromVisibWave heightAir tempDewpointWater temp
2018-Feb-24 12:04N 45°32' W 073°32'0 0.0
2018-Feb-24 11:55N 45°32' W 073°32'0 0.0
2018-Feb-24 11:20N 45°32' W 073°32'0 0.0
2018-Feb-24 10:58N 45°32' W 073°32'0 0.0
2018-Feb-24 10:03N 45°32' W 073°32'0 0.0
2018-Feb-24 09:59N 45°32' W 073°32'0 0.0
2018-Feb-24 09:28N 45°32' W 073°32'0 0.0
2018-Feb-24 08:57N 45°32' W 073°32'0 0.0
2018-Feb-24 08:06N 45°32' W 073°32'12 4.7
2018-Feb-24 05:29N 45°43' W 073°26'4 8.7
2018-Feb-24 05:01N 45°46' W 073°22'4 8.7
2018-Feb-24 04:30N 45°50' W 073°18'1 1.4
2018-Feb-24 04:01N 45°50' W 073°17'0 0.0
2018-Feb-24 03:30N 45°50' W 073°17'0 0.0
2018-Feb-24 03:01N 45°50' W 073°17'0 0.0
2018-Feb-24 02:27N 45°50' W 073°17'0 0.0
2018-Feb-24 02:01N 45°50' W 073°17'0 0.0
2018-Feb-24 01:30N 45°50' W 073°17'0 0.0
2018-Feb-24 01:00N 45°50' W 073°17'0 0.0
2018-Feb-24 00:30N 45°50' W 073°17'0 0.0
2018-Feb-24 00:01N 45°50' W 073°17'0 0.0
2018-Feb-23 23:31N 45°50' W 073°17'0 0.0
2018-Feb-23 23:01N 45°50' W 073°17'0 0.0
2018-Feb-23 22:30N 45°50' W 073°17'0 0.0
2018-Feb-23 22:01N 45°50' W 073°17'0 0.0
2018-Feb-23 21:30N 45°50' W 073°17'0 0.0
2018-Feb-23 21:01N 45°50' W 073°17'0 0.0
2018-Feb-23 20:29N 45°50' W 073°17'0 0.0
2018-Feb-23 20:01N 45°50' W 073°17'0 0.0
2018-Feb-23 19:31N 45°50' W 073°17'0 0.0
2018-Feb-23 18:59N 45°50' W 073°17'0 0.0
2018-Feb-23 18:31N 45°50' W 073°17'0 0.0
2018-Feb-23 18:00N 45°50' W 073°17'0 0.0
2018-Feb-23 17:30N 45°50' W 073°17'0 0.0
2018-Feb-23 17:01N 45°50' W 073°17'0 0.9
2018-Feb-23 16:31N 45°50' W 073°17'1 2.9
2018-Feb-23 16:00N 45°52' W 073°16'4 7.5
2018-Feb-23 15:31N 45°55' W 073°13'99 8.1
2018-Feb-23 03:13N 46°48' W 071°12'2 7.1
2018-Feb-23 03:00N 46°50' W 071°11'  

Dump ship's entire track history